sensor_id;sensor_type;location;lat;lon;timestamp;temperature;humidity
4896;DHT22;2463;49.948;8.472;2023-03-14T00:01:15;10.90;99.90
4896;DHT22;2463;49.948;8.472;2023-03-14T00:03:41;11.00;99.90
4896;DHT22;2463;49.948;8.472;2023-03-14T00:06:10;11.00;99.90
4896;DHT22;2463;49.948;8.472;2023-03-14T00:08:37;11.00;99.90
4896;DHT22;2463;49.948;8.472;2023-03-14T00:11:05;11.00;99.90
4896;DHT22;2463;49.948;8.472;2023-03-14T00:13:32;11.10;99.90
4896;DHT22;2463;49.948;8.472;2023-03-14T00:16:20;11.10;99.90
4896;DHT22;2463;49.948;8.472;2023-03-14T00:18:48;11.10;99.90
4896;DHT22;2463;49.948;8.472;2023-03-14T00:21:15;11.10;99.90
4896;DHT22;2463;49.948;8.472;2023-03-14T00:23:42;11.20;99.90
4896;DHT22;2463;49.948;8.472;2023-03-14T00:26:16;11.10;99.90
4896;DHT22;2463;49.948;8.472;2023-03-14T00:28:43;11.20;99.90
4896;DHT22;2463;49.948;8.472;2023-03-14T00:31:12;11.20;99.90
4896;DHT22;2463;49.948;8.472;2023-03-14T00:33:39;11.30;99.90
4896;DHT22;2463;49.948;8.472;2023-03-14T00:36:12;11.30;99.90
4896;DHT22;2463;49.948;8.472;2023-03-14T00:38:40;11.30;99.90
4896;DHT22;2463;49.948;8.472;2023-03-14T00:41:10;11.30;99.90
4896;DHT22;2463;49.948;8.472;2023-03-14T00:43:37;11.30;99.90
4896;DHT22;2463;49.948;8.472;2023-03-14T00:46:05;11.30;99.90
4896;DHT22;2463;49.948;8.472;2023-03-14T00:48:32;11.40;99.90
4896;DHT22;2463;49.948;8.472;2023-03-14T00:50:58;11.30;99.90
4896;DHT22;2463;49.948;8.472;2023-03-14T00:53:25;11.30;99.90
4896;DHT22;2463;49.948;8.472;2023-03-14T00:55:52;11.30;99.90
4896;DHT22;2463;49.948;8.472;2023-03-14T00:58:18;11.30;99.90
4896;DHT22;2463;49.948;8.472;2023-03-14T01:00:45;11.20;99.90
4896;DHT22;2463;49.948;8.472;2023-03-14T01:03:13;11.20;99.90
4896;DHT22;2463;49.948;8.472;2023-03-14T01:05:40;11.20;99.90
4896;DHT22;2463;49.948;8.472;2023-03-14T01:08:07;11.20;99.90
4896;DHT22;2463;49.948;8.472;2023-03-14T01:10:38;11.10;99.90
4896;DHT22;2463;49.948;8.472;2023-03-14T01:13:05;11.20;99.90
4896;DHT22;2463;49.948;8.472;2023-03-14T01:15:33;11.20;99.90
4896;DHT22;2463;49.948;8.472;2023-03-14T01:18:00;11.20;99.90
4896;DHT22;2463;49.948;8.472;2023-03-14T01:20:27;11.20;99.90
4896;DHT22;2463;49.948;8.472;2023-03-14T01:22:54;11.10;99.90
4896;DHT22;2463;49.948;8.472;2023-03-14T01:25:20;11.20;99.90
4896;DHT22;2463;49.948;8.472;2023-03-14T01:27:47;11.20;99.90
4896;DHT22;2463;49.948;8.472;2023-03-14T01:30:14;11.10;99.90
4896;DHT22;2463;49.948;8.472;2023-03-14T01:32:41;11.10;99.90
4896;DHT22;2463;49.948;8.472;2023-03-14T01:35:08;11.10;99.90
4896;DHT22;2463;49.948;8.472;2023-03-14T01:37:35;11.10;99.90
4896;DHT22;2463;49.948;8.472;2023-03-14T01:40:01;11.10;99.90
4896;DHT22;2463;49.948;8.472;2023-03-14T01:42:30;11.10;99.90
4896;DHT22;2463;49.948;8.472;2023-03-14T01:44:59;11.00;99.90
4896;DHT22;2463;49.948;8.472;2023-03-14T01:47:26;11.10;99.90
4896;DHT22;2463;49.948;8.472;2023-03-14T01:49:57;11.00;99.90
4896;DHT22;2463;49.948;8.472;2023-03-14T01:52:31;11.10;99.90
4896;DHT22;2463;49.948;8.472;2023-03-14T01:55:05;11.00;99.90
4896;DHT22;2463;49.948;8.472;2023-03-14T01:57:41;11.10;99.90
4896;DHT22;2463;49.948;8.472;2023-03-14T02:00:17;11.00;99.90
4896;DHT22;2463;49.948;8.472;2023-03-14T02:02:50;11.00;99.90
4896;DHT22;2463;49.948;8.472;2023-03-14T02:05:24;11.00;99.90
4896;DHT22;2463;49.948;8.472;2023-03-14T02:07:54;11.00;99.90
4896;DHT22;2463;49.948;8.472;2023-03-14T02:10:25;11.00;99.90
4896;DHT22;2463;49.948;8.472;2023-03-14T02:12:55;11.10;99.90
4896;DHT22;2463;49.948;8.472;2023-03-14T02:15:23;11.10;99.90
4896;DHT22;2463;49.948;8.472;2023-03-14T02:17:50;11.10;99.90
4896;DHT22;2463;49.948;8.472;2023-03-14T02:22:45;11.00;99.90
4896;DHT22;2463;49.948;8.472;2023-03-14T02:28:01;11.00;99.90
4896;DHT22;2463;49.948;8.472;2023-03-14T02:30:30;11.00;99.90
4896;DHT22;2463;49.948;8.472;2023-03-14T02:33:04;10.90;99.90
4896;DHT22;2463;49.948;8.472;2023-03-14T02:41:38;10.90;99.90
4896;DHT22;2463;49.948;8.472;2023-03-14T02:44:04;10.90;99.90
4896;DHT22;2463;49.948;8.472;2023-03-14T02:46:31;10.80;99.90
4896;DHT22;2463;49.948;8.472;2023-03-14T02:49:02;10.80;99.90
4896;DHT22;2463;49.948;8.472;2023-03-14T02:51:30;10.80;99.90
4896;DHT22;2463;49.948;8.472;2023-03-14T02:53:57;10.80;99.90
4896;DHT22;2463;49.948;8.472;2023-03-14T02:56:24;10.80;99.90
4896;DHT22;2463;49.948;8.472;2023-03-14T02:58:50;10.80;99.90
4896;DHT22;2463;49.948;8.472;2023-03-14T03:01:17;10.80;99.90
4896;DHT22;2463;49.948;8.472;2023-03-14T03:03:44;10.90;99.90
4896;DHT22;2463;49.948;8.472;2023-03-14T03:06:10;10.80;99.90
4896;DHT22;2463;49.948;8.472;2023-03-14T03:08:37;10.90;99.90
4896;DHT22;2463;49.948;8.472;2023-03-14T03:11:04;10.80;99.90
4896;DHT22;2463;49.948;8.472;2023-03-14T03:13:31;10.80;99.90
4896;DHT22;2463;49.948;8.472;2023-03-14T03:15:58;10.80;99.90
4896;DHT22;2463;49.948;8.472;2023-03-14T03:18:24;10.80;99.90
4896;DHT22;2463;49.948;8.472;2023-03-14T03:20:51;10.90;99.90
4896;DHT22;2463;49.948;8.472;2023-03-14T03:23:18;10.80;99.90
4896;DHT22;2463;49.948;8.472;2023-03-14T03:25:49;10.90;99.90
4896;DHT22;2463;49.948;8.472;2023-03-14T03:28:16;10.90;99.90
4896;DHT22;2463;49.948;8.472;2023-03-14T03:30:42;10.90;99.90
4896;DHT22;2463;49.948;8.472;2023-03-14T03:33:10;10.90;99.90
4896;DHT22;2463;49.948;8.472;2023-03-14T03:35:48;10.90;99.90
4896;DHT22;2463;49.948;8.472;2023-03-14T03:38:16;10.80;99.90
4896;DHT22;2463;49.948;8.472;2023-03-14T03:40:43;10.80;99.90
4896;DHT22;2463;49.948;8.472;2023-03-14T03:43:10;10.90;99.90
4896;DHT22;2463;49.948;8.472;2023-03-14T03:45:36;10.90;99.90
4896;DHT22;2463;49.948;8.472;2023-03-14T03:48:03;10.90;99.90
4896;DHT22;2463;49.948;8.472;2023-03-14T03:50:30;10.90;99.90
4896;DHT22;2463;49.948;8.472;2023-03-14T03:52:57;10.90;99.90
4896;DHT22;2463;49.948;8.472;2023-03-14T03:55:24;10.90;99.90
4896;DHT22;2463;49.948;8.472;2023-03-14T03:57:51;10.90;99.90
4896;DHT22;2463;49.948;8.472;2023-03-14T04:00:18;10.90;99.90
4896;DHT22;2463;49.948;8.472;2023-03-14T04:02:45;11.00;99.90
4896;DHT22;2463;49.948;8.472;2023-03-14T04:05:12;11.00;99.90
4896;DHT22;2463;49.948;8.472;2023-03-14T04:07:38;11.00;99.90
4896;DHT22;2463;49.948;8.472;2023-03-14T04:10:05;11.00;99.90
4896;DHT22;2463;49.948;8.472;2023-03-14T04:12:32;11.00;99.90
4896;DHT22;2463;49.948;8.472;2023-03-14T04:14:59;11.10;99.90
4896;DHT22;2463;49.948;8.472;2023-03-14T04:17:25;11.10;99.90
4896;DHT22;2463;49.948;8.472;2023-03-14T04:19:52;11.00;99.90
4896;DHT22;2463;49.948;8.472;2023-03-14T04:22:20;11.10;99.90
4896;DHT22;2463;49.948;8.472;2023-03-14T04:24:47;11.00;99.90
4896;DHT22;2463;49.948;8.472;2023-03-14T04:27:14;11.00;99.90
4896;DHT22;2463;49.948;8.472;2023-03-14T04:29:42;11.00;99.90
4896;DHT22;2463;49.948;8.472;2023-03-14T04:32:09;11.00;99.90
4896;DHT22;2463;49.948;8.472;2023-03-14T04:34:35;11.00;99.90
4896;DHT22;2463;49.948;8.472;2023-03-14T04:37:02;11.00;99.90
4896;DHT22;2463;49.948;8.472;2023-03-14T04:39:29;11.00;99.90
4896;DHT22;2463;49.948;8.472;2023-03-14T04:41:55;11.00;99.90
4896;DHT22;2463;49.948;8.472;2023-03-14T04:44:22;11.00;99.90
4896;DHT22;2463;49.948;8.472;2023-03-14T04:46:49;11.00;99.90
4896;DHT22;2463;49.948;8.472;2023-03-14T04:49:15;11.00;99.90
4896;DHT22;2463;49.948;8.472;2023-03-14T04:51:42;11.00;99.90
4896;DHT22;2463;49.948;8.472;2023-03-14T04:54:09;11.00;99.90
4896;DHT22;2463;49.948;8.472;2023-03-14T04:56:35;11.00;99.90
4896;DHT22;2463;49.948;8.472;2023-03-14T04:59:04;11.00;99.90
4896;DHT22;2463;49.948;8.472;2023-03-14T05:01:30;11.00;99.90
4896;DHT22;2463;49.948;8.472;2023-03-14T05:03:57;11.00;99.90
4896;DHT22;2463;49.948;8.472;2023-03-14T05:06:24;11.00;99.90
4896;DHT22;2463;49.948;8.472;2023-03-14T05:08:50;11.00;99.90
4896;DHT22;2463;49.948;8.472;2023-03-14T05:11:17;11.00;99.90
4896;DHT22;2463;49.948;8.472;2023-03-14T05:13:44;11.00;99.90
4896;DHT22;2463;49.948;8.472;2023-03-14T05:16:11;11.00;99.90
4896;DHT22;2463;49.948;8.472;2023-03-14T05:18:38;11.00;99.90
4896;DHT22;2463;49.948;8.472;2023-03-14T05:21:05;10.90;99.90
4896;DHT22;2463;49.948;8.472;2023-03-14T05:23:31;10.90;99.90
4896;DHT22;2463;49.948;8.472;2023-03-14T05:25:58;10.90;99.90
4896;DHT22;2463;49.948;8.472;2023-03-14T05:28:25;11.00;99.90
4896;DHT22;2463;49.948;8.472;2023-03-14T05:30:52;11.00;99.90
4896;DHT22;2463;49.948;8.472;2023-03-14T05:33:18;11.00;99.90
4896;DHT22;2463;49.948;8.472;2023-03-14T05:35:45;11.00;99.90
4896;DHT22;2463;49.948;8.472;2023-03-14T05:38:12;11.00;99.90
4896;DHT22;2463;49.948;8.472;2023-03-14T05:40:38;11.00;99.90
4896;DHT22;2463;49.948;8.472;2023-03-14T05:43:05;11.10;99.90
4896;DHT22;2463;49.948;8.472;2023-03-14T05:45:35;11.10;99.90
4896;DHT22;2463;49.948;8.472;2023-03-14T05:48:02;11.10;99.90
4896;DHT22;2463;49.948;8.472;2023-03-14T05:50:28;11.10;99.90
4896;DHT22;2463;49.948;8.472;2023-03-14T05:52:55;11.10;99.90
4896;DHT22;2463;49.948;8.472;2023-03-14T05:55:22;11.10;99.90
4896;DHT22;2463;49.948;8.472;2023-03-14T05:57:48;11.10;99.90
4896;DHT22;2463;49.948;8.472;2023-03-14T06:00:15;11.10;99.90
4896;DHT22;2463;49.948;8.472;2023-03-14T06:02:42;11.10;99.90
4896;DHT22;2463;49.948;8.472;2023-03-14T06:05:09;11.10;99.90
4896;DHT22;2463;49.948;8.472;2023-03-14T06:07:35;11.10;99.90
4896;DHT22;2463;49.948;8.472;2023-03-14T06:10:03;11.10;99.90
4896;DHT22;2463;49.948;8.472;2023-03-14T06:12:29;11.10;99.90
4896;DHT22;2463;49.948;8.472;2023-03-14T06:14:56;11.10;99.90
4896;DHT22;2463;49.948;8.472;2023-03-14T06:17:23;11.10;99.90
4896;DHT22;2463;49.948;8.472;2023-03-14T06:19:49;11.10;99.90
4896;DHT22;2463;49.948;8.472;2023-03-14T06:22:16;11.10;99.90
4896;DHT22;2463;49.948;8.472;2023-03-14T06:24:43;11.10;99.90
4896;DHT22;2463;49.948;8.472;2023-03-14T06:27:10;11.00;99.90
4896;DHT22;2463;49.948;8.472;2023-03-14T06:29:36;11.00;99.90
4896;DHT22;2463;49.948;8.472;2023-03-14T06:32:03;11.00;99.90
4896;DHT22;2463;49.948;8.472;2023-03-14T06:34:31;11.00;99.90
4896;DHT22;2463;49.948;8.472;2023-03-14T06:36:57;11.10;99.90
4896;DHT22;2463;49.948;8.472;2023-03-14T06:39:24;11.10;99.90
4896;DHT22;2463;49.948;8.472;2023-03-14T06:41:51;11.10;99.90
4896;DHT22;2463;49.948;8.472;2023-03-14T06:44:17;11.10;99.90
4896;DHT22;2463;49.948;8.472;2023-03-14T06:46:44;11.10;99.90
4896;DHT22;2463;49.948;8.472;2023-03-14T06:49:11;11.10;99.90
4896;DHT22;2463;49.948;8.472;2023-03-14T06:51:37;11.10;99.90
4896;DHT22;2463;49.948;8.472;2023-03-14T06:54:04;11.10;99.90
4896;DHT22;2463;49.948;8.472;2023-03-14T06:56:31;11.10;99.90
4896;DHT22;2463;49.948;8.472;2023-03-14T06:58:58;11.10;99.90
4896;DHT22;2463;49.948;8.472;2023-03-14T07:01:26;11.20;99.90
4896;DHT22;2463;49.948;8.472;2023-03-14T07:03:54;11.20;99.90
4896;DHT22;2463;49.948;8.472;2023-03-14T07:06:21;11.10;99.90
4896;DHT22;2463;49.948;8.472;2023-03-14T07:08:48;11.20;99.90
4896;DHT22;2463;49.948;8.472;2023-03-14T07:11:14;11.20;99.90
4896;DHT22;2463;49.948;8.472;2023-03-14T07:13:41;11.20;99.90
4896;DHT22;2463;49.948;8.472;2023-03-14T07:16:08;11.20;99.90
4896;DHT22;2463;49.948;8.472;2023-03-14T07:18:35;11.20;99.90
4896;DHT22;2463;49.948;8.472;2023-03-14T07:21:02;11.30;99.90
4896;DHT22;2463;49.948;8.472;2023-03-14T07:23:28;11.30;99.90
4896;DHT22;2463;49.948;8.472;2023-03-14T07:25:56;11.30;99.90
4896;DHT22;2463;49.948;8.472;2023-03-14T07:28:22;11.30;99.90
4896;DHT22;2463;49.948;8.472;2023-03-14T07:30:49;11.30;99.90
4896;DHT22;2463;49.948;8.472;2023-03-14T07:33:16;11.30;99.90
4896;DHT22;2463;49.948;8.472;2023-03-14T07:35:43;11.30;99.90
4896;DHT22;2463;49.948;8.472;2023-03-14T07:38:09;11.30;99.90
4896;DHT22;2463;49.948;8.472;2023-03-14T07:40:36;11.30;99.90
4896;DHT22;2463;49.948;8.472;2023-03-14T07:43:03;11.30;99.90
4896;DHT22;2463;49.948;8.472;2023-03-14T07:45:29;11.30;99.90
4896;DHT22;2463;49.948;8.472;2023-03-14T07:47:56;11.30;99.90
4896;DHT22;2463;49.948;8.472;2023-03-14T07:50:25;11.40;99.90
4896;DHT22;2463;49.948;8.472;2023-03-14T07:52:54;11.40;99.90
4896;DHT22;2463;49.948;8.472;2023-03-14T07:55:21;11.40;99.90
4896;DHT22;2463;49.948;8.472;2023-03-14T07:57:48;11.40;99.90
4896;DHT22;2463;49.948;8.472;2023-03-14T08:00:15;11.40;99.90
4896;DHT22;2463;49.948;8.472;2023-03-14T08:02:41;11.40;99.90
4896;DHT22;2463;49.948;8.472;2023-03-14T08:05:09;10.50;99.90
4896;DHT22;2463;49.948;8.472;2023-03-14T08:07:35;11.40;99.90
4896;DHT22;2463;49.948;8.472;2023-03-14T08:10:03;11.50;99.90
4896;DHT22;2463;49.948;8.472;2023-03-14T08:12:30;11.40;99.90
4896;DHT22;2463;49.948;8.472;2023-03-14T08:14:56;11.50;99.90
4896;DHT22;2463;49.948;8.472;2023-03-14T08:17:23;11.60;99.90
4896;DHT22;2463;49.948;8.472;2023-03-14T08:19:51;11.60;99.90
4896;DHT22;2463;49.948;8.472;2023-03-14T08:22:18;11.70;99.90
4896;DHT22;2463;49.948;8.472;2023-03-14T08:24:45;11.90;99.90
4896;DHT22;2463;49.948;8.472;2023-03-14T08:27:12;11.90;99.90
4896;DHT22;2463;49.948;8.472;2023-03-14T08:29:40;11.80;99.90
4896;DHT22;2463;49.948;8.472;2023-03-14T08:32:08;11.80;99.90
4896;DHT22;2463;49.948;8.472;2023-03-14T08:34:35;11.90;99.90
4896;DHT22;2463;49.948;8.472;2023-03-14T08:37:02;12.10;99.90
4896;DHT22;2463;49.948;8.472;2023-03-14T08:39:36;12.60;99.90
4896;DHT22;2463;49.948;8.472;2023-03-14T08:42:03;12.80;99.90
4896;DHT22;2463;49.948;8.472;2023-03-14T08:44:30;13.40;99.90
4896;DHT22;2463;49.948;8.472;2023-03-14T08:46:57;13.80;99.90
4896;DHT22;2463;49.948;8.472;2023-03-14T08:49:24;13.80;99.90
4896;DHT22;2463;49.948;8.472;2023-03-14T08:51:50;13.50;99.90
4896;DHT22;2463;49.948;8.472;2023-03-14T08:54:17;13.50;99.90
4896;DHT22;2463;49.948;8.472;2023-03-14T08:56:45;14.20;99.90
4896;DHT22;2463;49.948;8.472;2023-03-14T08:59:11;15.30;99.90
4896;DHT22;2463;49.948;8.472;2023-03-14T09:01:38;16.40;99.90
4896;DHT22;2463;49.948;8.472;2023-03-14T09:04:05;17.00;99.90
4896;DHT22;2463;49.948;8.472;2023-03-14T09:06:33;16.80;99.90
4896;DHT22;2463;49.948;8.472;2023-03-14T09:08:59;16.10;99.90
4896;DHT22;2463;49.948;8.472;2023-03-14T09:11:26;16.90;99.90
4896;DHT22;2463;49.948;8.472;2023-03-14T09:13:52;16.30;99.90
4896;DHT22;2463;49.948;8.472;2023-03-14T09:16:19;15.10;99.90
4896;DHT22;2463;49.948;8.472;2023-03-14T09:18:46;14.20;99.90
4896;DHT22;2463;49.948;8.472;2023-03-14T09:21:12;13.70;99.90
4896;DHT22;2463;49.948;8.472;2023-03-14T09:23:39;13.50;99.90
4896;DHT22;2463;49.948;8.472;2023-03-14T09:26:06;13.20;99.90
4896;DHT22;2463;49.948;8.472;2023-03-14T09:28:33;13.20;99.90
4896;DHT22;2463;49.948;8.472;2023-03-14T09:31:10;13.20;99.90
4896;DHT22;2463;49.948;8.472;2023-03-14T09:33:38;13.30;99.90
4896;DHT22;2463;49.948;8.472;2023-03-14T09:36:05;13.10;99.90
4896;DHT22;2463;49.948;8.472;2023-03-14T09:38:34;13.00;99.90
4896;DHT22;2463;49.948;8.472;2023-03-14T09:41:03;13.10;99.90
4896;DHT22;2463;49.948;8.472;2023-03-14T09:43:36;13.00;99.90
4896;DHT22;2463;49.948;8.472;2023-03-14T09:46:03;13.00;99.90
4896;DHT22;2463;49.948;8.472;2023-03-14T09:48:32;13.00;99.90
4896;DHT22;2463;49.948;8.472;2023-03-14T09:51:06;12.90;99.90
4896;DHT22;2463;49.948;8.472;2023-03-14T09:53:41;12.90;99.90
4896;DHT22;2463;49.948;8.472;2023-03-14T09:56:19;13.00;99.90
4896;DHT22;2463;49.948;8.472;2023-03-14T09:58:56;13.00;99.90
4896;DHT22;2463;49.948;8.472;2023-03-14T10:01:26;13.00;99.90
4896;DHT22;2463;49.948;8.472;2023-03-14T10:04:01;12.90;99.90
4896;DHT22;2463;49.948;8.472;2023-03-14T10:06:30;12.90;99.90
4896;DHT22;2463;49.948;8.472;2023-03-14T10:08:57;12.80;99.90
4896;DHT22;2463;49.948;8.472;2023-03-14T10:11:24;12.80;99.90
4896;DHT22;2463;49.948;8.472;2023-03-14T10:16:33;12.90;99.90
4896;DHT22;2463;49.948;8.472;2023-03-14T10:19:11;12.80;99.90
4896;DHT22;2463;49.948;8.472;2023-03-14T10:21:40;12.70;99.90
4896;DHT22;2463;49.948;8.472;2023-03-14T10:24:26;12.60;99.90
4896;DHT22;2463;49.948;8.472;2023-03-14T10:26:57;12.50;99.90
4896;DHT22;2463;49.948;8.472;2023-03-14T10:29:24;12.40;99.90
4896;DHT22;2463;49.948;8.472;2023-03-14T10:34:28;12.40;99.90
4896;DHT22;2463;49.948;8.472;2023-03-14T10:36:58;12.40;99.90
4896;DHT22;2463;49.948;8.472;2023-03-14T10:39:33;12.40;99.90
4896;DHT22;2463;49.948;8.472;2023-03-14T10:42:13;12.30;99.90
4896;DHT22;2463;49.948;8.472;2023-03-14T10:44:41;12.20;99.90
4896;DHT22;2463;49.948;8.472;2023-03-14T10:47:17;12.20;99.90
4896;DHT22;2463;49.948;8.472;2023-03-14T10:49:45;12.20;99.90
4896;DHT22;2463;49.948;8.472;2023-03-14T10:52:27;12.10;99.90
4896;DHT22;2463;49.948;8.472;2023-03-14T10:55:14;12.20;99.90
4896;DHT22;2463;49.948;8.472;2023-03-14T10:57:42;12.20;99.90
4896;DHT22;2463;49.948;8.472;2023-03-14T11:00:21;12.30;99.90
4896;DHT22;2463;49.948;8.472;2023-03-14T11:03:09;12.40;99.90
4896;DHT22;2463;49.948;8.472;2023-03-14T11:05:46;12.40;99.90
4896;DHT22;2463;49.948;8.472;2023-03-14T11:08:26;12.40;99.90
4896;DHT22;2463;49.948;8.472;2023-03-14T11:11:14;12.40;99.90
4896;DHT22;2463;49.948;8.472;2023-03-14T11:16:46;12.60;99.90
4896;DHT22;2463;49.948;8.472;2023-03-14T11:19:36;12.70;99.90
4896;DHT22;2463;49.948;8.472;2023-03-14T11:22:25;12.60;99.90
4896;DHT22;2463;49.948;8.472;2023-03-14T11:27:48;12.70;99.90
4896;DHT22;2463;49.948;8.472;2023-03-14T11:30:27;12.70;99.90
4896;DHT22;2463;49.948;8.472;2023-03-14T11:33:13;12.70;99.90
4896;DHT22;2463;49.948;8.472;2023-03-14T11:38:46;12.70;99.90
4896;DHT22;2463;49.948;8.472;2023-03-14T11:41:34;12.80;99.90
4896;DHT22;2463;49.948;8.472;2023-03-14T11:44:39;12.80;99.90
4896;DHT22;2463;49.948;8.472;2023-03-14T11:49:47;12.80;99.90
4896;DHT22;2463;49.948;8.472;2023-03-14T11:52:37;12.80;99.90
4896;DHT22;2463;49.948;8.472;2023-03-14T11:55:28;12.80;99.90
4896;DHT22;2463;49.948;8.472;2023-03-14T11:58:15;12.70;99.90
4896;DHT22;2463;49.948;8.472;2023-03-14T12:00:43;12.50;99.90
4896;DHT22;2463;49.948;8.472;2023-03-14T12:08:49;12.70;99.90
4896;DHT22;2463;49.948;8.472;2023-03-14T12:14:03;12.70;99.90
4896;DHT22;2463;49.948;8.472;2023-03-14T12:16:35;12.60;99.90
4896;DHT22;2463;49.948;8.472;2023-03-14T12:22:21;12.30;99.90
4896;DHT22;2463;49.948;8.472;2023-03-14T12:24:57;12.40;99.90
4896;DHT22;2463;49.948;8.472;2023-03-14T12:30:32;12.60;99.90
4896;DHT22;2463;49.948;8.472;2023-03-14T12:35:49;12.60;99.90
4896;DHT22;2463;49.948;8.472;2023-03-14T12:38:43;12.70;99.90
4896;DHT22;2463;49.948;8.472;2023-03-14T12:41:27;13.00;99.90
4896;DHT22;2463;49.948;8.472;2023-03-14T12:43:55;13.10;99.90
4896;DHT22;2463;49.948;8.472;2023-03-14T12:46:26;13.10;99.90
4896;DHT22;2463;49.948;8.472;2023-03-14T12:51:30;13.10;99.90
4896;DHT22;2463;49.948;8.472;2023-03-14T13:04:44;13.00;99.90
4896;DHT22;2463;49.948;8.472;2023-03-14T13:07:33;12.80;99.90
4896;DHT22;2463;49.948;8.472;2023-03-14T13:13:03;12.20;99.90
4896;DHT22;2463;49.948;8.472;2023-03-14T13:15:41;12.00;99.90
4896;DHT22;2463;49.948;8.472;2023-03-14T13:21:18;12.00;99.90
4896;DHT22;2463;49.948;8.472;2023-03-14T13:24:07;12.20;99.90
4896;DHT22;2463;49.948;8.472;2023-03-14T13:26:47;12.20;99.90
4896;DHT22;2463;49.948;8.472;2023-03-14T13:29:20;12.20;99.90
4896;DHT22;2463;49.948;8.472;2023-03-14T13:31:52;12.10;99.90
4896;DHT22;2463;49.948;8.472;2023-03-14T13:34:20;12.10;99.90
4896;DHT22;2463;49.948;8.472;2023-03-14T13:36:51;11.70;99.90
4896;DHT22;2463;49.948;8.472;2023-03-14T13:39:20;11.40;99.90
4896;DHT22;2463;49.948;8.472;2023-03-14T13:41:48;11.10;99.90
4896;DHT22;2463;49.948;8.472;2023-03-14T13:44:30;10.90;99.90
4896;DHT22;2463;49.948;8.472;2023-03-14T13:47:00;10.70;99.90
4896;DHT22;2463;49.948;8.472;2023-03-14T13:49:29;10.70;99.90
4896;DHT22;2463;49.948;8.472;2023-03-14T13:51:58;11.10;99.90
4896;DHT22;2463;49.948;8.472;2023-03-14T13:54:26;11.50;99.90
4896;DHT22;2463;49.948;8.472;2023-03-14T13:57:01;11.70;99.90
4896;DHT22;2463;49.948;8.472;2023-03-14T13:59:30;11.80;99.90
4896;DHT22;2463;49.948;8.472;2023-03-14T14:02:10;11.90;99.90
4896;DHT22;2463;49.948;8.472;2023-03-14T14:04:38;12.20;99.90
4896;DHT22;2463;49.948;8.472;2023-03-14T14:07:12;12.70;99.90
4896;DHT22;2463;49.948;8.472;2023-03-14T14:09:43;13.20;99.90
4896;DHT22;2463;49.948;8.472;2023-03-14T14:12:14;13.60;99.90
4896;DHT22;2463;49.948;8.472;2023-03-14T14:17:32;14.00;99.90
4896;DHT22;2463;49.948;8.472;2023-03-14T14:20:00;14.10;99.90
4896;DHT22;2463;49.948;8.472;2023-03-14T14:22:30;14.00;99.90
4896;DHT22;2463;49.948;8.472;2023-03-14T14:24:57;13.80;99.90
4896;DHT22;2463;49.948;8.472;2023-03-14T14:27:27;13.60;99.90
4896;DHT22;2463;49.948;8.472;2023-03-14T14:30:05;13.50;99.90
4896;DHT22;2463;49.948;8.472;2023-03-14T14:32:39;13.50;99.90
4896;DHT22;2463;49.948;8.472;2023-03-14T14:35:10;13.40;99.90
4896;DHT22;2463;49.948;8.472;2023-03-14T14:37:44;13.10;99.90
4896;DHT22;2463;49.948;8.472;2023-03-14T14:40:19;13.00;99.90
4896;DHT22;2463;49.948;8.472;2023-03-14T14:42:47;12.70;99.90
4896;DHT22;2463;49.948;8.472;2023-03-14T14:45:27;12.40;99.90
4896;DHT22;2463;49.948;8.472;2023-03-14T14:48:05;12.30;99.90
4896;DHT22;2463;49.948;8.472;2023-03-14T14:50:37;11.90;99.90
4896;DHT22;2463;49.948;8.472;2023-03-14T14:53:29;11.80;99.90
4896;DHT22;2463;49.948;8.472;2023-03-14T14:55:59;11.60;99.90
4896;DHT22;2463;49.948;8.472;2023-03-14T14:58:29;11.40;99.90
4896;DHT22;2463;49.948;8.472;2023-03-14T15:03:44;11.00;99.90
4896;DHT22;2463;49.948;8.472;2023-03-14T15:06:13;11.00;99.90
4896;DHT22;2463;49.948;8.472;2023-03-14T15:08:42;10.90;99.90
4896;DHT22;2463;49.948;8.472;2023-03-14T15:11:17;11.00;99.90
4896;DHT22;2463;49.948;8.472;2023-03-14T15:13:44;11.10;99.90
4896;DHT22;2463;49.948;8.472;2023-03-14T15:16:12;11.00;99.90
4896;DHT22;2463;49.948;8.472;2023-03-14T15:18:39;10.90;99.90
4896;DHT22;2463;49.948;8.472;2023-03-14T15:21:06;10.80;99.90
4896;DHT22;2463;49.948;8.472;2023-03-14T15:23:33;10.60;99.90
4896;DHT22;2463;49.948;8.472;2023-03-14T15:25:59;10.40;99.90
4896;DHT22;2463;49.948;8.472;2023-03-14T15:28:28;10.30;99.90
4896;DHT22;2463;49.948;8.472;2023-03-14T15:30:58;10.20;99.90
4896;DHT22;2463;49.948;8.472;2023-03-14T15:33:26;10.20;99.90
4896;DHT22;2463;49.948;8.472;2023-03-14T15:35:53;10.20;99.90
4896;DHT22;2463;49.948;8.472;2023-03-14T15:38:21;10.10;99.90
4896;DHT22;2463;49.948;8.472;2023-03-14T15:40:50;10.00;99.90
4896;DHT22;2463;49.948;8.472;2023-03-14T15:43:17;10.10;99.90
4896;DHT22;2463;49.948;8.472;2023-03-14T15:45:45;10.20;99.90
4896;DHT22;2463;49.948;8.472;2023-03-14T15:48:17;10.20;99.90
4896;DHT22;2463;49.948;8.472;2023-03-14T15:50:44;10.20;99.90
4896;DHT22;2463;49.948;8.472;2023-03-14T15:53:11;10.30;99.90
4896;DHT22;2463;49.948;8.472;2023-03-14T15:55:38;10.30;99.90
4896;DHT22;2463;49.948;8.472;2023-03-14T15:58:05;10.10;99.90
4896;DHT22;2463;49.948;8.472;2023-03-14T16:00:31;10.10;99.90
4896;DHT22;2463;49.948;8.472;2023-03-14T16:02:58;10.00;99.90
4896;DHT22;2463;49.948;8.472;2023-03-14T16:05:25;10.00;99.90
4896;DHT22;2463;49.948;8.472;2023-03-14T16:07:52;9.90;99.90
4896;DHT22;2463;49.948;8.472;2023-03-14T16:10:18;9.90;99.90
4896;DHT22;2463;49.948;8.472;2023-03-14T16:12:45;9.80;99.90
4896;DHT22;2463;49.948;8.472;2023-03-14T16:15:12;9.60;99.90
4896;DHT22;2463;49.948;8.472;2023-03-14T16:17:38;9.50;99.90
4896;DHT22;2463;49.948;8.472;2023-03-14T16:20:06;9.30;99.90
4896;DHT22;2463;49.948;8.472;2023-03-14T16:22:34;9.30;99.90
4896;DHT22;2463;49.948;8.472;2023-03-14T16:25:06;9.20;99.90
4896;DHT22;2463;49.948;8.472;2023-03-14T16:27:33;9.20;99.90
4896;DHT22;2463;49.948;8.472;2023-03-14T16:30:00;9.20;99.90
4896;DHT22;2463;49.948;8.472;2023-03-14T16:32:27;9.20;99.90
4896;DHT22;2463;49.948;8.472;2023-03-14T16:34:54;9.00;99.90
4896;DHT22;2463;49.948;8.472;2023-03-14T16:37:23;8.90;99.90
4896;DHT22;2463;49.948;8.472;2023-03-14T16:39:50;8.80;99.90
4896;DHT22;2463;49.948;8.472;2023-03-14T16:42:36;8.70;99.90
4896;DHT22;2463;49.948;8.472;2023-03-14T16:45:20;8.70;99.90
4896;DHT22;2463;49.948;8.472;2023-03-14T16:47:47;8.70;99.90
4896;DHT22;2463;49.948;8.472;2023-03-14T16:50:14;8.60;99.90
4896;DHT22;2463;49.948;8.472;2023-03-14T16:52:41;8.60;99.90
4896;DHT22;2463;49.948;8.472;2023-03-14T16:55:07;8.50;99.90
4896;DHT22;2463;49.948;8.472;2023-03-14T16:57:34;8.50;99.90
4896;DHT22;2463;49.948;8.472;2023-03-14T17:00:01;8.50;99.90
4896;DHT22;2463;49.948;8.472;2023-03-14T17:02:27;8.40;99.90
4896;DHT22;2463;49.948;8.472;2023-03-14T17:04:54;8.20;99.90
4896;DHT22;2463;49.948;8.472;2023-03-14T17:07:21;8.10;99.90
4896;DHT22;2463;49.948;8.472;2023-03-14T17:09:47;7.90;99.90
4896;DHT22;2463;49.948;8.472;2023-03-14T17:12:14;7.80;99.90
4896;DHT22;2463;49.948;8.472;2023-03-14T17:14:41;7.60;99.90
4896;DHT22;2463;49.948;8.472;2023-03-14T17:17:08;7.50;99.90
4896;DHT22;2463;49.948;8.472;2023-03-14T17:19:35;7.40;99.90
4896;DHT22;2463;49.948;8.472;2023-03-14T17:22:01;7.30;99.90
4896;DHT22;2463;49.948;8.472;2023-03-14T17:24:48;7.30;99.90
4896;DHT22;2463;49.948;8.472;2023-03-14T17:27:15;7.20;99.90